Time;durP1;ratioP1;P1;durP2;ratioP2;P2;SDS_P1;SDS_P2;PMS_P1;PMS_P2;Temp;Humidity;BMP_temperature;BMP_pressure;BME280_temperature;BME280_humidity;BME280_pressure;Samples;Min_cycle;Max_cycle;Signal;HPM_P1;HPM_P2
2022/05/08 00:00:37;;;;;;;6.65;2.14;;;;;;;;;;371366;144;857614;-56
2022/05/08 00:01:39;;;;;;;3.80;2.05;;;;;;;;;;366100;144;857777;-53
2022/05/08 00:02:41;;;;;;;5.24;2.01;;;;;;;;;;365925;147;858841;-56
2022/05/08 00:03:43;;;;;;;6.15;2.64;;;;;;;;;;366534;144;864164;-56
2022/05/08 00:04:51;;;;;;;5.92;2.06;;;;;;;;;;370327;144;856281;-55
2022/05/08 00:05:52;;;;;;;5.96;2.55;;;;;;;;;;365684;147;863883;-56
2022/05/08 00:06:55;;;;;;;5.58;2.55;;;;;;;;;;365864;147;859392;-56
2022/05/08 00:07:56;;;;;;;7.41;3.01;;;;;;;;;;365972;144;865690;-56
2022/05/08 00:08:58;;;;;;;5.39;2.47;;;;;;;;;;369822;144;857845;-56
2022/05/08 00:09:59;;;;;;;4.31;2.16;;;;;;;;;;370328;144;865206;-55
2022/05/08 00:11:01;;;;;;;5.61;2.23;;;;;;;;;;365875;146;857249;-56
2022/05/08 00:12:03;;;;;;;5.12;2.25;;;;;;;;;;365910;146;857201;-56
2022/05/08 00:13:05;;;;;;;6.55;1.99;;;;;;;;;;370704;144;864824;-56
2022/05/08 00:14:06;;;;;;;6.01;2.40;;;;;;;;;;369713;144;858530;-56
2022/05/08 00:15:08;;;;;;;3.88;1.95;;;;;;;;;;366057;144;866541;-56
2022/05/08 00:16:10;;;;;;;3.93;2.13;;;;;;;;;;366147;144;857661;-55
2022/05/08 00:17:13;;;;;;;3.59;2.04;;;;;;;;;;366123;147;857142;-56
2022/05/08 00:18:15;;;;;;;7.72;2.37;;;;;;;;;;366021;144;864705;-55
2022/05/08 00:19:16;;;;;;;5.57;2.02;;;;;;;;;;366056;144;865924;-56
2022/05/08 00:20:18;;;;;;;5.66;2.14;;;;;;;;;;366055;147;857458;-56
2022/05/08 00:21:20;;;;;;;5.58;1.97;;;;;;;;;;366110;147;864807;-56
2022/05/08 00:22:21;;;;;;;4.47;2.14;;;;;;;;;;365996;147;857319;-55
2022/05/08 00:23:23;;;;;;;2.61;1.23;;;;;;;;;;365871;147;864850;-55
2022/05/08 00:24:25;;;;;;;9.04;1.59;;;;;;;;;;365988;147;857324;-57
2022/05/08 00:25:27;;;;;;;5.28;1.24;;;;;;;;;;365790;147;864879;-58
2022/05/08 00:26:29;;;;;;;10.59;1.77;;;;;;;;;;365798;144;864702;-56
2022/05/08 00:27:30;;;;;;;3.34;1.30;;;;;;;;;;365943;147;857367;-56
2022/05/08 00:28:32;;;;;;;3.42;1.77;;;;;;;;;;365919;147;859407;-56
2022/05/08 00:29:33;;;;;;;6.01;1.96;;;;;;;;;;365982;147;857963;-56
2022/05/08 00:30:36;;;;;;;3.57;1.51;;;;;;;;;;366018;147;857766;-56
2022/05/08 00:31:37;;;;;;;5.78;2.29;;;;;;;;;;365919;147;865220;-56
2022/05/08 00:32:39;;;;;;;5.07;2.09;;;;;;;;;;365927;147;858039;-56
2022/05/08 00:33:41;;;;;;;8.31;2.34;;;;;;;;;;365974;146;859656;-55
2022/05/08 00:34:42;;;;;;;8.10;3.12;;;;;;;;;;365992;146;858099;-55
2022/05/08 00:35:44;;;;;;;5.13;1.99;;;;;;;;;;365869;146;859185;-56
2022/05/08 00:36:45;;;;;;;5.60;2.05;;;;;;;;;;365908;146;859971;-56
2022/05/08 00:37:47;;;;;;;6.35;2.46;;;;;;;;;;369378;144;863972;-55
2022/05/08 00:38:48;;;;;;;6.80;2.22;;;;;;;;;;370207;144;856729;-56
2022/05/08 00:39:50;;;;;;;3.78;1.91;;;;;;;;;;366057;144;856416;-56
2022/05/08 00:40:51;;;;;;;4.37;2.48;;;;;;;;;;365990;147;857658;-56
2022/05/08 00:41:53;;;;;;;5.49;2.51;;;;;;;;;;365782;147;864787;-55
2022/05/08 00:42:54;;;;;;;5.09;2.10;;;;;;;;;;366080;147;857205;-55
2022/05/08 00:43:56;;;;;;;6.60;1.81;;;;;;;;;;364286;147;864729;-56
2022/05/08 00:44:57;;;;;;;5.08;2.19;;;;;;;;;;361332;149;857293;-55
2022/05/08 00:46:00;;;;;;;5.54;2.21;;;;;;;;;;361460;149;857329;-56
2022/05/08 00:47:01;;;;;;;7.17;2.33;;;;;;;;;;361435;149;866136;-56
2022/05/08 00:48:03;;;;;;;7.26;2.19;;;;;;;;;;361431;149;857252;-55
2022/05/08 00:49:05;;;;;;;5.71;2.25;;;;;;;;;;362433;146;859190;-57
2022/05/08 00:50:06;;;;;;;6.25;1.91;;;;;;;;;;368074;146;859375;-56
2022/05/08 00:51:09;;;;;;;3.36;1.61;;;;;;;;;;367188;146;864749;-56
2022/05/08 00:52:11;;;;;;;3.22;2.26;;;;;;;;;;366907;146;865673;-55
2022/05/08 00:53:12;;;;;;;5.51;1.65;;;;;;;;;;366990;146;857834;-55
2022/05/08 00:54:14;;;;;;;3.95;1.49;;;;;;;;;;363183;146;859020;-56
2022/05/08 00:55:16;;;;;;;2.98;1.74;;;;;;;;;;361473;146;857799;-56
2022/05/08 00:56:18;;;;;;;5.77;1.83;;;;;;;;;;361534;146;859090;-55
2022/05/08 00:57:20;;;;;;;5.54;1.66;;;;;;;;;;361550;147;861632;-56
2022/05/08 00:58:21;;;;;;;5.39;2.11;;;;;;;;;;361499;147;858970;-57
2022/05/08 00:59:24;;;;;;;3.02;2.04;;;;;;;;;;364140;147;858681;-57
2022/05/08 01:00:26;;;;;;;3.40;1.97;;;;;;;;;;362469;146;858676;-56
2022/05/08 01:01:28;;;;;;;3.15;2.11;;;;;;;;;;361489;149;859341;-56
2022/05/08 01:02:31;;;;;;;7.83;2.07;;;;;;;;;;361462;146;859836;-56
2022/05/08 01:03:33;;;;;;;6.58;2.36;;;;;;;;;;365318;146;857330;-56
2022/05/08 01:04:34;;;;;;;7.11;2.21;;;;;;;;;;361738;146;858986;-57
2022/05/08 01:05:41;;;;;;;3.35;2.05;;;;;;;;;;367942;146;857888;-56
2022/05/08 01:06:44;;;;;;;8.05;2.41;;;;;;;;;;366483;147;857664;-57
2022/05/08 01:07:45;;;;;;;3.73;2.02;;;;;;;;;;366086;146;858270;-58
2022/05/08 01:08:48;;;;;;;6.07;2.00;;;;;;;;;;363975;146;857327;-56
2022/05/08 01:09:50;;;;;;;4.39;1.85;;;;;;;;;;367840;146;857257;-56
2022/05/08 01:10:54;;;;;;;5.96;1.93;;;;;;;;;;367277;146;857322;-57
2022/05/08 01:11:55;;;;;;;4.19;1.97;;;;;;;;;;366654;146;857261;-55
2022/05/08 01:12:57;;;;;;;4.96;2.10;;;;;;;;;;366702;146;857570;-56
2022/05/08 01:13:59;;;;;;;4.65;2.41;;;;;;;;;;366850;147;858743;-55
2022/05/08 01:15:11;;;;;;;4.01;2.03;;;;;;;;;;367375;146;865245;-58
2022/05/08 01:16:15;;;;;;;7.43;2.52;;;;;;;;;;367890;146;858587;-55
2022/05/08 01:17:18;;;;;;;3.00;1.54;;;;;;;;;;367430;146;857227;-56
2022/05/08 01:18:19;;;;;;;3.00;1.74;;;;;;;;;;368121;146;858585;-58
2022/05/08 01:19:21;;;;;;;5.60;1.61;;;;;;;;;;361345;146;857519;-55
2022/05/08 01:20:23;;;;;;;5.20;1.79;;;;;;;;;;361383;146;857293;-56
2022/05/08 01:21:39;;;;;;;3.44;1.50;;;;;;;;;;368205;146;857258;-58
2022/05/08 01:22:41;;;;;;;4.38;1.54;;;;;;;;;;365619;145;859357;-56
2022/05/08 01:23:43;;;;;;;3.39;1.43;;;;;;;;;;361501;149;857075;-55
2022/05/08 01:24:45;;;;;;;3.03;1.71;;;;;;;;;;361523;146;858355;-56
2022/05/08 01:25:51;;;;;;;4.68;2.01;;;;;;;;;;362495;148;859753;-56
2022/05/08 01:26:54;;;;;;;6.00;2.19;;;;;;;;;;362262;146;857394;-56
2022/05/08 01:27:55;;;;;;;6.89;2.02;;;;;;;;;;361432;149;857130;-57
2022/05/08 01:28:57;;;;;;;5.15;2.15;;;;;;;;;;361534;147;859373;-56
2022/05/08 01:29:59;;;;;;;4.37;2.19;;;;;;;;;;361495;149;857351;-56
2022/05/08 01:31:01;;;;;;;4.75;2.09;;;;;;;;;;361512;146;858214;-56
2022/05/08 01:32:04;;;;;;;5.42;2.21;;;;;;;;;;364005;147;858128;-56
2022/05/08 01:33:06;;;;;;;6.57;2.33;;;;;;;;;;362307;147;858791;-56
2022/05/08 01:34:07;;;;;;;3.84;2.09;;;;;;;;;;361395;149;861554;-56
2022/05/08 01:35:09;;;;;;;4.38;2.26;;;;;;;;;;361466;146;864801;-57
2022/05/08 01:36:11;;;;;;;6.21;2.31;;;;;;;;;;361446;149;857425;-56
2022/05/08 01:37:12;;;;;;;6.85;2.48;;;;;;;;;;365114;147;864853;-56
2022/05/08 01:38:14;;;;;;;5.04;2.37;;;;;;;;;;361452;149;857238;-55
2022/05/08 01:39:17;;;;;;;6.76;2.14;;;;;;;;;;365828;146;865061;-56
2022/05/08 01:40:20;;;;;;;7.69;2.27;;;;;;;;;;363735;147;867059;-55
2022/05/08 01:41:21;;;;;;;7.09;2.29;;;;;;;;;;363780;146;857504;-58
2022/05/08 01:42:23;;;;;;;8.11;2.31;;;;;;;;;;366789;146;864795;-56
2022/05/08 01:43:27;;;;;;;3.81;1.94;;;;;;;;;;361363;147;865487;-56
2022/05/08 01:44:29;;;;;;;4.01;1.95;;;;;;;;;;363046;146;857950;-57
2022/05/08 01:45:30;;;;;;;2.66;1.39;;;;;;;;;;365922;147;857995;-56
2022/05/08 01:46:33;;;;;;;3.65;1.80;;;;;;;;;;365993;147;864153;-56
2022/05/08 01:48:55;;;;;;;3.98;1.54;;;;;;;;;;365852;144;856363;-57
2022/05/08 01:49:57;;;;;;;4.97;1.65;;;;;;;;;;365992;147;857157;-56
2022/05/08 01:50:59;;;;;;;3.10;1.60;;;;;;;;;;366054;146;860817;-56
2022/05/08 01:52:01;;;;;;;6.43;2.21;;;;;;;;;;368511;144;859412;-56
2022/05/08 01:53:03;;;;;;;7.00;2.39;;;;;;;;;;368190;144;857309;-56
2022/05/08 01:54:05;;;;;;;3.23;2.06;;;;;;;;;;366030;146;857293;-56
2022/05/08 01:55:07;;;;;;;5.93;2.25;;;;;;;;;;366009;144;865547;-56
2022/05/08 01:56:09;;;;;;;3.63;1.91;;;;;;;;;;365979;147;864852;-55
2022/05/08 01:57:10;;;;;;;12.41;2.29;;;;;;;;;;371411;144;857188;-55
2022/05/08 01:58:12;;;;;;;6.12;2.33;;;;;;;;;;368973;144;857264;-56
2022/05/08 01:59:14;;;;;;;5.73;2.49;;;;;;;;;;369629;144;857169;-56
2022/05/08 02:00:16;;;;;;;12.89;2.30;;;;;;;;;;367934;146;864777;-56
2022/05/08 02:01:18;;;;;;;4.28;2.15;;;;;;;;;;366186;146;865022;-56
2022/05/08 02:02:20;;;;;;;3.33;1.91;;;;;;;;;;365811;147;865656;-55
2022/05/08 02:03:22;;;;;;;7.40;2.38;;;;;;;;;;371082;144;857306;-55
2022/05/08 02:04:24;;;;;;;5.01;2.17;;;;;;;;;;365863;144;859010;-57
2022/05/08 02:05:25;;;;;;;6.46;2.16;;;;;;;;;;365816;146;857310;-56
2022/05/08 02:06:27;;;;;;;5.56;2.62;;;;;;;;;;365922;146;859138;-55
2022/05/08 02:07:29;;;;;;;2.76;1.84;;;;;;;;;;365870;147;866651;-56
2022/05/08 02:08:31;;;;;;;4.88;1.93;;;;;;;;;;365905;147;859229;-56
2022/05/08 02:09:33;;;;;;;5.30;2.24;;;;;;;;;;365856;147;857280;-55
2022/05/08 02:10:35;;;;;;;3.97;1.97;;;;;;;;;;365779;147;857376;-56
2022/05/08 02:11:37;;;;;;;5.96;2.03;;;;;;;;;;365850;147;857241;-56
2022/05/08 02:12:39;;;;;;;2.40;1.33;;;;;;;;;;365936;147;857135;-55
2022/05/08 02:13:40;;;;;;;7.05;2.20;;;;;;;;;;365900;147;857192;-57
2022/05/08 02:14:43;;;;;;;3.67;1.65;;;;;;;;;;365987;147;857278;-56
2022/05/08 02:15:45;;;;;;;3.23;1.90;;;;;;;;;;365978;147;857300;-56
2022/05/08 02:16:47;;;;;;;4.23;1.74;;;;;;;;;;366011;146;857362;-56
2022/05/08 02:17:48;;;;;;;3.99;1.36;;;;;;;;;;366031;146;856307;-56
2022/05/08 02:18:50;;;;;;;7.79;1.50;;;;;;;;;;367323;144;857823;-56
2022/05/08 02:19:53;;;;;;;8.27;1.81;;;;;;;;;;369368;144;866901;-56
2022/05/08 02:21:14;;;;;;;5.57;2.08;;;;;;;;;;370334;144;857195;-55
2022/05/08 02:22:16;;;;;;;9.57;2.27;;;;;;;;;;355763;151;860364;-57
2022/05/08 02:23:17;;;;;;;5.73;2.14;;;;;;;;;;354173;152;858960;-56
2022/05/08 02:24:19;;;;;;;4.09;2.35;;;;;;;;;;354171;152;860188;-56
2022/05/08 02:25:21;;;;;;;5.29;2.13;;;;;;;;;;354262;152;857344;-56
2022/05/08 02:26:23;;;;;;;4.31;2.07;;;;;;;;;;354974;151;857331;-55
2022/05/08 02:27:24;;;;;;;4.39;1.73;;;;;;;;;;354233;152;857382;-56
2022/05/08 02:28:26;;;;;;;4.01;2.12;;;;;;;;;;354175;152;864776;-56
2022/05/08 02:29:29;;;;;;;4.06;2.08;;;;;;;;;;354217;152;857343;-56
2022/05/08 02:30:31;;;;;;;6.79;2.08;;;;;;;;;;354073;152;857337;-55
2022/05/08 02:31:34;;;;;;;5.09;2.34;;;;;;;;;;354198;152;863877;-58
2022/05/08 02:32:35;;;;;;;7.16;2.27;;;;;;;;;;354205;152;860142;-57
2022/05/08 02:33:37;;;;;;;13.56;2.47;;;;;;;;;;354259;152;857125;-57
2022/05/08 02:34:39;;;;;;;5.00;2.34;;;;;;;;;;354169;152;858454;-56
2022/05/08 02:35:41;;;;;;;5.26;2.01;;;;;;;;;;354119;152;864846;-55
2022/05/08 02:36:44;;;;;;;6.88;2.11;;;;;;;;;;354063;152;864824;-56
2022/05/08 02:37:48;;;;;;;6.67;2.85;;;;;;;;;;350550;152;858923;-56
2022/05/08 02:38:49;;;;;;;8.39;2.13;;;;;;;;;;348719;154;859036;-56
2022/05/08 02:39:52;;;;;;;3.79;2.34;;;;;;;;;;350669;152;856982;-56
2022/05/08 02:40:54;;;;;;;4.06;1.55;;;;;;;;;;352477;153;859052;-56
2022/05/08 02:41:55;;;;;;;2.24;1.30;;;;;;;;;;352396;152;867082;-57
2022/05/08 02:42:57;;;;;;;2.74;1.29;;;;;;;;;;352295;152;858352;-56
2022/05/08 02:43:58;;;;;;;3.74;1.44;;;;;;;;;;352193;153;857207;-56
2022/05/08 02:45:00;;;;;;;3.05;1.82;;;;;;;;;;353851;151;865394;-54
2022/05/08 02:46:04;;;;;;;2.36;1.29;;;;;;;;;;353062;151;858892;-57
2022/05/08 02:47:05;;;;;;;3.46;1.71;;;;;;;;;;352733;152;865146;-56
2022/05/08 02:48:08;;;;;;;4.32;1.85;;;;;;;;;;345805;155;864923;-56
2022/05/08 02:49:09;;;;;;;4.15;2.21;;;;;;;;;;346839;151;864830;-57
2022/05/08 02:50:11;;;;;;;4.40;2.06;;;;;;;;;;356962;150;866469;-56
2022/05/08 02:51:13;;;;;;;4.81;2.03;;;;;;;;;;356950;151;864927;-57
2022/05/08 02:52:15;;;;;;;3.86;1.93;;;;;;;;;;356992;150;859094;-56
2022/05/08 02:53:17;;;;;;;6.46;2.50;;;;;;;;;;356996;151;857177;-56
2022/05/08 02:54:19;;;;;;;4.01;2.21;;;;;;;;;;356688;151;859010;-56
2022/05/08 02:59:21;;;;;;;7.07;2.30;;;;;;;;;;355663;151;857440;-56
2022/05/08 03:00:24;;;;;;;8.20;2.12;;;;;;;;;;356258;151;857756;-58
2022/05/08 03:01:25;;;;;;;4.38;1.95;;;;;;;;;;357060;150;865876;-57
2022/05/08 03:02:27;;;;;;;8.33;2.19;;;;;;;;;;356616;151;860007;-57
2022/05/08 03:03:30;;;;;;;5.31;2.14;;;;;;;;;;355413;151;857473;-56
2022/05/08 03:04:32;;;;;;;5.26;2.39;;;;;;;;;;353266;151;857329;-56
2022/05/08 03:05:54;;;;;;;3.66;2.14;;;;;;;;;;356974;147;859026;-57
2022/05/08 03:06:56;;;;;;;6.28;2.32;;;;;;;;;;359912;148;864711;-58
2022/05/08 03:07:57;;;;;;;5.71;2.03;;;;;;;;;;357116;150;858200;-58
2022/05/08 03:08:59;;;;;;;3.64;2.06;;;;;;;;;;357777;148;859086;-58
2022/05/08 03:10:01;;;;;;;7.42;1.54;;;;;;;;;;358476;149;864828;-57
2022/05/08 03:12:23;;;;;;;3.03;1.42;;;;;;;;;;357174;148;857395;-57
2022/05/08 03:13:25;;;;;;;3.53;1.39;;;;;;;;;;357153;151;857244;-58
2022/05/08 03:14:26;;;;;;;5.72;1.54;;;;;;;;;;357226;148;859675;-57
2022/05/08 03:15:28;;;;;;;3.89;1.28;;;;;;;;;;357057;148;867380;-56
2022/05/08 03:16:30;;;;;;;2.82;1.50;;;;;;;;;;357834;148;857933;-57
2022/05/08 03:17:31;;;;;;;5.40;2.02;;;;;;;;;;360665;148;865186;-56
2022/05/08 03:18:34;;;;;;;5.89;2.13;;;;;;;;;;357081;148;857437;-57
2022/05/08 03:19:36;;;;;;;4.14;2.54;;;;;;;;;;356928;151;864865;-57
2022/05/08 03:20:40;;;;;;;6.15;2.11;;;;;;;;;;356812;148;859683;-56
2022/05/08 03:21:41;;;;;;;8.83;2.08;;;;;;;;;;355848;151;857874;-56
2022/05/08 03:22:43;;;;;;;5.01;2.65;;;;;;;;;;356201;148;866017;-56
2022/05/08 03:23:45;;;;;;;4.92;2.94;;;;;;;;;;356974;150;857280;-56
2022/05/08 03:24:46;;;;;;;6.17;2.48;;;;;;;;;;356995;148;864841;-56
2022/05/08 03:25:49;;;;;;;3.97;1.94;;;;;;;;;;356772;150;856410;-56
2022/05/08 03:26:51;;;;;;;7.47;2.39;;;;;;;;;;359629;148;864915;-56
2022/05/08 03:27:54;;;;;;;4.68;1.91;;;;;;;;;;360654;148;859937;-56
2022/05/08 03:28:56;;;;;;;3.43;2.05;;;;;;;;;;360445;148;856337;-57
2022/05/08 03:29:58;;;;;;;5.19;2.11;;;;;;;;;;363456;148;860077;-56
2022/05/08 03:31:00;;;;;;;8.78;2.23;;;;;;;;;;363259;148;867009;-56
2022/05/08 03:32:03;;;;;;;4.43;2.13;;;;;;;;;;363546;148;857156;-56
2022/05/08 03:33:06;;;;;;;3.99;2.09;;;;;;;;;;359000;147;857282;-57
2022/05/08 03:34:08;;;;;;;7.74;2.66;;;;;;;;;;356859;151;856932;-56
2022/05/08 03:35:10;;;;;;;4.53;2.41;;;;;;;;;;357003;148;857196;-56
2022/05/08 03:36:12;;;;;;;7.07;2.18;;;;;;;;;;356947;150;857683;-56
2022/05/08 03:37:13;;;;;;;5.95;2.32;;;;;;;;;;356931;148;864747;-55
2022/05/08 03:38:15;;;;;;;4.54;1.54;;;;;;;;;;356997;151;864914;-55
2022/05/08 03:39:17;;;;;;;2.86;1.78;;;;;;;;;;357177;148;857697;-55
2022/05/08 03:40:19;;;;;;;4.37;1.46;;;;;;;;;;359044;150;857401;-56
2022/05/08 03:41:20;;;;;;;4.86;2.16;;;;;;;;;;363561;148;857228;-55
2022/05/08 03:42:22;;;;;;;6.51;1.81;;;;;;;;;;363641;148;857278;-55
2022/05/08 03:43:23;;;;;;;5.21;1.94;;;;;;;;;;356885;151;857224;-56
2022/05/08 03:44:25;;;;;;;6.04;2.54;;;;;;;;;;360497;148;857359;-56
2022/05/08 03:45:28;;;;;;;4.28;2.02;;;;;;;;;;363712;148;857429;-56
2022/05/08 03:46:30;;;;;;;4.08;2.76;;;;;;;;;;363484;148;858960;-55
2022/05/08 03:47:31;;;;;;;5.66;2.51;;;;;;;;;;363714;148;857296;-56
2022/05/08 03:48:34;;;;;;;8.24;2.62;;;;;;;;;;362766;148;863750;-56
2022/05/08 03:49:35;;;;;;;5.57;1.99;;;;;;;;;;361096;148;857389;-55
2022/05/08 03:50:37;;;;;;;9.46;2.89;;;;;;;;;;362126;148;857608;-56
2022/05/08 03:51:39;;;;;;;11.46;2.81;;;;;;;;;;357183;148;865192;-56
2022/05/08 03:52:40;;;;;;;7.86;2.56;;;;;;;;;;363608;148;864712;-56
2022/05/08 03:53:42;;;;;;;3.42;1.89;;;;;;;;;;363202;148;857224;-57
2022/05/08 03:54:44;;;;;;;5.97;2.31;;;;;;;;;;361405;148;864135;-55
2022/05/08 03:55:45;;;;;;;4.46;2.44;;;;;;;;;;357296;148;856712;-56
2022/05/08 03:56:47;;;;;;;5.52;2.34;;;;;;;;;;359610;148;857236;-55
2022/05/08 03:57:48;;;;;;;4.19;2.06;;;;;;;;;;362397;148;864370;-55
2022/05/08 03:58:50;;;;;;;9.91;2.69;;;;;;;;;;357233;148;857816;-55
2022/05/08 03:59:52;;;;;;;4.52;2.19;;;;;;;;;;357153;148;857591;-56
2022/05/08 04:00:53;;;;;;;9.51;2.41;;;;;;;;;;357224;148;856257;-56
2022/05/08 04:01:55;;;;;;;8.26;2.24;;;;;;;;;;357158;148;864852;-57
2022/05/08 04:02:58;;;;;;;4.69;2.21;;;;;;;;;;357200;148;857178;-56
2022/05/08 04:04:01;;;;;;;5.23;2.52;;;;;;;;;;357096;148;865707;-57
2022/05/08 04:05:03;;;;;;;5.42;2.31;;;;;;;;;;356913;150;858992;-57
2022/05/08 04:06:05;;;;;;;4.63;2.17;;;;;;;;;;357151;148;857211;-57
2022/05/08 04:07:07;;;;;;;9.06;2.23;;;;;;;;;;353430;150;857222;-55
2022/05/08 04:08:08;;;;;;;4.03;1.70;;;;;;;;;;351408;151;866556;-56
2022/05/08 04:09:10;;;;;;;7.57;2.07;;;;;;;;;;349827;154;858880;-55
2022/05/08 04:10:12;;;;;;;2.75;1.67;;;;;;;;;;349964;151;857313;-56
2022/05/08 04:11:14;;;;;;;8.29;2.12;;;;;;;;;;352542;151;860739;-56
2022/05/08 04:12:15;;;;;;;5.89;2.08;;;;;;;;;;352218;151;858791;-56
2022/05/08 04:13:17;;;;;;;5.27;2.26;;;;;;;;;;349836;153;860652;-56
2022/05/08 04:14:19;;;;;;;2.86;1.76;;;;;;;;;;349901;151;859623;-56
2022/05/08 04:16:40;;;;;;;6.56;2.57;;;;;;;;;;349183;154;857165;-56
2022/05/08 04:17:42;;;;;;;5.91;2.74;;;;;;;;;;350262;151;858645;-56
2022/05/08 04:18:43;;;;;;;5.16;2.23;;;;;;;;;;356056;151;858968;-55
2022/05/08 04:19:46;;;;;;;9.14;3.51;;;;;;;;;;355954;151;865728;-56
2022/05/08 04:20:48;;;;;;;5.25;2.49;;;;;;;;;;356079;151;856286;-56
2022/05/08 04:21:50;;;;;;;7.53;2.57;;;;;;;;;;355919;151;857235;-56
2022/05/08 04:24:17;;;;;;;10.33;2.77;;;;;;;;;;354529;151;857131;-58
2022/05/08 04:25:19;;;;;;;6.66;2.67;;;;;;;;;;354975;151;866526;-55
2022/05/08 04:26:20;;;;;;;7.44;2.51;;;;;;;;;;350039;151;858265;-56
2022/05/08 04:27:22;;;;;;;5.06;2.33;;;;;;;;;;350024;153;864810;-56
2022/05/08 04:28:24;;;;;;;5.99;2.71;;;;;;;;;;350021;151;857414;-56
2022/05/08 04:29:26;;;;;;;5.51;2.46;;;;;;;;;;350054;153;857415;-57
2022/05/08 04:30:28;;;;;;;8.54;2.55;;;;;;;;;;355349;149;857356;-56
2022/05/08 04:31:30;;;;;;;6.91;2.80;;;;;;;;;;356256;151;857339;-56
2022/05/08 04:32:32;;;;;;;4.55;2.21;;;;;;;;;;350720;151;864844;-56
2022/05/08 04:33:34;;;;;;;6.07;2.42;;;;;;;;;;349988;153;857223;-56
2022/05/08 04:34:36;;;;;;;7.16;2.51;;;;;;;;;;356244;151;857358;-56
2022/05/08 04:35:38;;;;;;;6.67;2.87;;;;;;;;;;356155;151;857200;-56
2022/05/08 04:36:40;;;;;;;5.18;2.09;;;;;;;;;;355176;151;859032;-55
2022/05/08 04:37:43;;;;;;;5.85;2.26;;;;;;;;;;354538;151;865138;-57
2022/05/08 04:38:45;;;;;;;3.31;1.90;;;;;;;;;;355251;151;858540;-55
2022/05/08 04:39:47;;;;;;;7.14;2.00;;;;;;;;;;354286;151;857116;-56
2022/05/08 04:40:49;;;;;;;6.81;2.83;;;;;;;;;;349943;153;857335;-56
2022/05/08 04:41:50;;;;;;;3.76;1.79;;;;;;;;;;349992;151;857237;-56
2022/05/08 04:42:52;;;;;;;4.21;2.13;;;;;;;;;;349858;153;857205;-56
2022/05/08 04:43:59;;;;;;;6.67;2.41;;;;;;;;;;350842;151;857279;-56
2022/05/08 04:44:59;;;;;;;6.92;2.53;;;;;;;;;;355712;151;857682;-57
2022/05/08 04:46:01;;;;;;;6.03;2.83;;;;;;;;;;355939;151;859633;-56
2022/05/08 04:47:03;;;;;;;6.47;2.31;;;;;;;;;;356080;151;858541;-57
2022/05/08 04:48:05;;;;;;;6.14;2.67;;;;;;;;;;354492;151;857274;-57
2022/05/08 04:49:07;;;;;;;11.20;2.72;;;;;;;;;;356158;151;857187;-56
2022/05/08 04:50:09;;;;;;;6.46;3.07;;;;;;;;;;353064;151;857183;-56
2022/05/08 04:51:10;;;;;;;4.80;2.76;;;;;;;;;;350021;151;864705;-55
2022/05/08 04:52:12;;;;;;;5.99;2.85;;;;;;;;;;350033;151;857074;-55
2022/05/08 04:53:15;;;;;;;6.39;2.78;;;;;;;;;;349995;151;857113;-56
2022/05/08 04:54:16;;;;;;;4.59;2.70;;;;;;;;;;349967;151;864742;-57
2022/05/08 04:55:19;;;;;;;5.91;3.12;;;;;;;;;;349963;151;857170;-57
2022/05/08 04:56:21;;;;;;;7.26;2.58;;;;;;;;;;350038;151;857350;-56
2022/05/08 04:57:22;;;;;;;7.03;2.62;;;;;;;;;;349997;153;857386;-56
2022/05/08 04:58:29;;;;;;;8.61;2.79;;;;;;;;;;354110;151;857309;-57
2022/05/08 04:59:28;;;;;;;6.16;3.26;;;;;;;;;;355474;151;857447;-56
2022/05/08 05:00:30;;;;;;;5.40;3.19;;;;;;;;;;356010;151;857471;-56
2022/05/08 05:01:31;;;;;;;8.02;3.38;;;;;;;;;;356318;151;857924;-56
2022/05/08 05:02:33;;;;;;;9.70;3.29;;;;;;;;;;351185;151;857872;-56
2022/05/08 05:15:57;;;;;;;8.29;3.78;;;;;;;15.14;43.32;100430.34;405747;130;875602;-56
2022/05/08 05:17:00;;;;;;;11.39;3.55;;;;;;;15.13;43.28;100431.23;391403;133;858105;-56
2022/05/08 05:18:03;;;;;;;6.25;3.47;;;;;;;15.25;43.08;100435.34;399633;133;860233;-55
2022/05/08 05:19:05;;;;;;;6.06;2.89;;;;;;;15.33;42.87;100436.05;397508;132;865819;-55
2022/05/08 05:20:08;;;;;;;7.49;3.56;;;;;;;15.42;42.47;100438.50;397652;132;856670;-56
2022/05/08 05:21:09;;;;;;;8.07;3.20;;;;;;;15.48;42.03;100434.89;401103;133;865246;-56
2022/05/08 05:22:11;;;;;;;4.74;3.39;;;;;;;;;;393216;135;860031;-56
2022/05/08 05:23:13;;;;;;;8.31;3.59;;;;;;;;;;389685;138;866245;-56
2022/05/08 05:24:15;;;;;;;10.02;3.94;;;;;;;;;;395185;135;857942;-55
2022/05/08 05:25:16;;;;;;;6.69;3.40;;;;;;;;;;391143;136;859672;-55
2022/05/08 05:26:18;;;;;;;6.68;3.59;;;;;;;;;;388865;138;858532;-56
2022/05/08 05:27:20;;;;;;;7.06;3.09;;;;;;;;;;389432;138;858649;-56
2022/05/08 05:28:21;;;;;;;3.54;2.18;;;;;;;;;;385452;138;857533;-55
2022/05/08 05:29:23;;;;;;;7.00;3.03;;;;;;;;;;386250;138;857326;-56
2022/05/08 05:30:26;;;;;;;7.73;3.78;;;;;;;;;;389787;138;864849;-55
2022/05/08 05:31:28;;;;;;;8.81;3.44;;;;;;;;;;386067;138;865536;-56
2022/05/08 05:32:30;;;;;;;8.73;3.06;;;;;;;;;;388296;138;858622;-56
2022/05/08 05:33:32;;;;;;;5.16;2.75;;;;;;;;;;389883;138;858588;-56
2022/05/08 05:34:35;;;;;;;7.68;3.06;;;;;;;;;;389651;138;857882;-56
2022/05/08 05:35:37;;;;;;;8.51;2.99;;;;;;;;;;386756;138;865173;-57
2022/05/08 05:36:40;;;;;;;9.03;3.17;;;;;;;;;;387502;136;864871;-56
2022/05/08 05:37:42;;;;;;;6.37;3.51;;;;;;;;;;387771;137;865739;-56
2022/05/08 05:38:44;;;;;;;5.41;3.00;;;;;;;;;;392259;137;857363;-57
2022/05/08 05:39:46;;;;;;;6.79;3.64;;;;;;;;;;389668;137;858074;-56
2022/05/08 05:40:48;;;;;;;3.33;2.37;;;;;;;;;;387453;138;857184;-56
2022/05/08 05:41:50;;;;;;;5.81;3.07;;;;;;;;;;385460;138;857411;-55
2022/05/08 05:42:52;;;;;;;5.57;2.62;;;;;;;;;;386129;139;857244;-58
2022/05/08 05:43:54;;;;;;;5.74;2.36;;;;;;;;;;386979;136;857317;-58
2022/05/08 05:44:56;;;;;;;5.34;3.05;;;;;;;;;;394704;135;857148;-57
2022/05/08 05:48:38;;;;;;;7.97;2.76;;;;;;;;;;394022;135;863764;-56
2022/05/08 05:49:40;;;;;;;8.69;3.43;;;;;;;;;;389693;134;861043;-56
2022/05/08 05:50:42;;;;;;;8.03;3.91;;;;;;;;;;395627;133;857253;-58
2022/05/08 05:51:44;;;;;;;10.15;3.03;;;;;;;;;;398517;134;864865;-57
2022/05/08 05:52:46;;;;;;;17.35;3.43;;;;;;;;;;395638;133;865524;-57
2022/05/08 05:53:47;;;;;;;11.24;3.53;;;;;;;;;;392784;133;857588;-56
2022/05/08 05:54:49;;;;;;;7.35;3.29;;;;;;;;;;393454;134;864906;-57
2022/05/08 05:55:51;;;;;;;6.87;2.91;;;;;;;;;;390086;137;857221;-58
2022/05/08 05:56:53;;;;;;;6.16;3.09;;;;;;;;;;389561;137;866514;-56
2022/05/08 05:57:55;;;;;;;8.82;3.06;;;;;;;;;;389646;138;857236;-56
2022/05/08 05:58:57;;;;;;;7.06;3.39;;;;;;;;;;389597;135;866720;-56
2022/05/08 05:59:59;;;;;;;10.02;3.11;;;;;;;;;;391083;134;858485;-57
2022/05/08 06:01:02;;;;;;;6.30;3.36;;;;;;;;;;391831;134;866132;-55
2022/05/08 06:02:03;;;;;;;9.59;3.52;;;;;;;;;;389070;135;857292;-57
2022/05/08 06:03:05;;;;;;;5.31;3.36;;;;;;;;;;393749;135;866195;-56
2022/05/08 06:04:07;;;;;;;6.94;3.13;;;;;;;;;;392092;134;857780;-57
2022/05/08 06:05:08;;;;;;;7.22;3.19;;;;;;;;;;389824;136;866311;-57
2022/05/08 06:06:12;;;;;;;8.49;3.13;;;;;;;;;;389503;138;858244;-57
2022/05/08 06:07:14;;;;;;;6.29;3.11;;;;;;;;;;382449;138;864993;-56
2022/05/08 06:08:15;;;;;;;9.31;3.93;;;;;;;;;;383835;138;858516;-57
2022/05/08 06:09:17;;;;;;;7.14;3.99;;;;;;;;;;395953;134;857096;-58
2022/05/08 06:10:19;;;;;;;10.75;3.53;;;;;;;;;;395594;134;857231;-57
2022/05/08 06:11:20;;;;;;;7.89;3.14;;;;;;;;;;385903;134;865119;-59
2022/05/08 06:12:22;;;;;;;7.41;3.29;;;;;;;;;;388858;135;857662;-57
2022/05/08 06:13:23;;;;;;;5.61;3.31;;;;;;;;;;395025;135;857287;-57
2022/05/08 06:14:25;;;;;;;8.31;3.54;;;;;;;;;;395746;134;857300;-55
2022/05/08 06:15:26;;;;;;;10.99;2.84;;;;;;;;;;389901;137;859042;-57
2022/05/08 06:16:28;;;;;;;7.04;3.29;;;;;;;;;;391782;135;859469;-56
2022/05/08 06:17:29;;;;;;;10.15;4.09;;;;;;;;;;396170;135;865971;-56
2022/05/08 06:18:31;;;;;;;11.94;3.18;;;;;;;;;;391065;134;859359;-57
2022/05/08 06:19:33;;;;;;;9.29;3.48;;;;;;;;;;393946;134;859319;-56
2022/05/08 06:20:34;;;;;;;7.80;3.69;;;;;;;;;;393796;136;858751;-57
2022/05/08 06:21:36;;;;;;;8.84;3.51;;;;;;;;;;395413;134;865567;-57
2022/05/08 06:22:37;;;;;;;5.61;3.26;;;;;;;;;;393119;134;858926;-56
2022/05/08 06:23:39;;;;;;;9.74;3.66;;;;;;;;;;392426;135;865521;-56
2022/05/08 06:24:41;;;;;;;13.10;3.55;;;;;;;;;;389943;135;856923;-56
2022/05/08 06:25:42;;;;;;;6.98;3.64;;;;;;;;;;392775;135;859094;-56
2022/05/08 06:26:44;;;;;;;6.12;3.14;;;;;;;;;;387844;137;858953;-58
2022/05/08 06:27:45;;;;;;;9.59;3.64;;;;;;;;;;384998;138;865565;-56
2022/05/08 06:28:48;;;;;;;6.64;3.51;;;;;;;;;;383966;138;865041;-56
2022/05/08 06:29:50;;;;;;;7.00;3.56;;;;;;;;;;384990;137;857097;-56